ADDS TAF Board (Experimental) INFO Settings
IDs: Format: Expanded Condensed

KCLT - Charlotte/Douglas In, NC, US

Issued at 1504 UTC 28 Sep 2016
Updated at 1705 UTC 28 Sep 2016
Time1652Z 28/18Z 28/19Z 28/20Z 28/21Z 28/22Z 28/23Z 29/00Z 29/01Z 29/02Z 29/03Z 29/04Z 29/05Z 29/06Z
Type OBS PRVL
  [TEMP]  
PRVL
  [TEMP]  
PRVL
  [TEMP]  
PRVL
  [TEMP]  
PRVL PRVL PRVL PRVL PRVL PRVL PRVL PRVL PRVL
VIS 10 >6
  [4]  
>6
  [4]  
>6
  [4]  
>6
  [4]  
>6 >6 >6 >6 >6 >6 >6 >6 >6
CIG -- 40
  [25]  
40
  [25]  
40
  [25]  
40
  [25]  
40 40 -- -- -- -- -- -- --
Cover SCT BKN
  [BKN]  
BKN
  [BKN]  
BKN
  [BKN]  
BKN
  [BKN]  
BKN BKN SCT SCT SCT SCT SCT SCT SCT
FltCat VFR VFR
  [MVFR]  
VFR
  [MVFR]  
VFR
  [MVFR]  
VFR
  [MVFR]  
VFR VFR VFR VFR VFR VFR VFR VFR VFR
WX -- VCSH
  [-TSRA]  
VCSH
  [-TSRA]  
VCSH
  [-TSRA]  
VCSH
  [-TSRA]  
VCSH VCSH -- -- -- -- -- -- --
WDir 210 220
[VRB]
220
[VRB]
220
[VRB]
220
[VRB]
220 220 180 180 180 180 180 180 180
WSpd 6 6
  [15]  
6
  [15]  
6
  [15]  
6
  [15]  
6 6 6 6 6 6 6 6 6
WGst -- --
  [25]  
--
  [25]  
--
  [25]  
--
  [25]  
-- -- -- -- -- -- -- -- --
R05/23
XWnd -2 -1 -1 -1 -1 -1 -1 -4 -4 -4 -4 -4 -4 -4
XGst -- 0 0 0 0 -- -- -- -- -- -- -- -- --
HWnd -6 -6 -6 -6 -6 -6 -6 -4 -4 -4 -4 -4 -4 -4
HGst -- 0 0 0 0 -- -- -- -- -- -- -- -- --
R18/36
XWnd -3 -4 -4 -4 -4 -4 -4 -0 -0 -0 -0 -0 -0 -0
XGst -- 0 0 0 0 -- -- -- -- -- -- -- -- --
HWnd 5 4 4 4 4 4 4 6 6 6 6 6 6 6
HGst -- 0 0 0 0 -- -- -- -- -- -- -- -- --

Raw TAF
KCLT 281504Z 2815/2912 21006KT P6SM SCT018
  TEMPO 2815/2817 BKN018
  FM281700 22006KT P6SM VCSH BKN040
  TEMPO 2818/2822 VRB15G25KT 4SM -TSRA BKN025CB
  FM290000 18006KT P6SM FEW070 SCT250
  FM291000 VRB02KT P6SM SCT250


Raw METAR
KCLT 281652Z 21006KT 10SM SCT026 SCT140 28/19 A2994 RMK AO2 SLP131 T02780194
KCLT 281552Z 22008KT 10SM FEW018 SCT140 27/19 A2995 RMK AO2 SLP134 T02670194
KCLT 281452Z 21005KT 10SM FEW018 SCT140 25/19 A2996 RMK AO2 SLP137 T02500194 51008

METAR Board
Radar Display
Forecast Discussion

TAF Board Legend

Potential Impact
Threat None Slight Moderate High
Visibility (sm) ≥5.1 5.1>X≥3 3>X≥1 <1
Ceiling (100 ft) ≥30.1 30.1>X≥10 10>X≥5 <5
Wind Speed (kt) <10 10≤X<20 20≤X<30 ≥30
Wind Gust (kt) <15 15≤X<25 25≤X<35 ≥35
Weather No Wx Reported VCTS,-TS,-FZRA,SN TS,FZRA +TS,+FZRA,+SN